Time;durP1;ratioP1;P1;durP2;ratioP2;P2;SDS_P1;SDS_P2;PMS_P1;PMS_P2;Temp;Humidity;BMP_temperature;BMP_pressure;BME280_temperature;BME280_humidity;BME280_pressure;Samples;Min_cycle;Max_cycle;Signal;HPM_P1;HPM_P2
2023/03/01 05:01:28;;;;;;;20.67;10.37;;;;;;;3.67;79.11;101378.16;6238257;28;20072;-87
2023/03/01 05:04:31;;;;;;;17.30;9.40;;;;;;;3.58;79.26;101385.84;5343057;33;32096;-90
2023/03/01 05:07:33;;;;;;;18.08;9.80;;;;;;;3.62;79.33;101386.47;5344278;33;33794;-90
2023/03/01 05:10:40;;;;;;;20.85;9.68;;;;;;;3.68;79.57;101387.84;5343790;33;33877;-90
2023/03/01 05:13:43;;;;;;;18.17;10.32;;;;;;;3.70;79.27;101378.81;5343771;33;33931;-87
2023/03/01 05:16:46;;;;;;;21.42;10.15;;;;;;;3.74;79.46;101374.09;5344034;33;34578;-87
2023/03/01 05:19:48;;;;;;;17.02;9.95;;;;;;;3.74;79.47;101382.09;5344138;33;33966;-86
2023/03/01 05:22:54;;;;;;;17.35;9.98;;;;;;;3.74;79.91;101377.59;5347678;33;33838;-86
2023/03/01 05:25:59;;;;;;;17.98;9.38;;;;;;;3.77;80.35;101379.22;5343705;33;34118;-87
2023/03/01 05:29:02;;;;;;;17.52;9.77;;;;;;;3.79;80.12;101380.81;5343458;33;33653;-87
2023/03/01 05:32:04;;;;;;;17.98;9.80;;;;;;;3.83;79.71;101384.09;5343463;33;35143;-86
2023/03/01 05:35:08;;;;;;;18.12;9.88;;;;;;;3.81;80.36;101388.69;5343381;33;35144;-86
2023/03/01 05:38:15;;;;;;;19.65;9.65;;;;;;;3.74;80.21;101388.25;5343622;33;32412;-86
2023/03/01 05:41:18;;;;;;;19.37;9.02;;;;;;;3.80;81.05;101390.53;5343464;33;34013;-86
2023/03/01 05:44:21;;;;;;;17.85;10.18;;;;;;;3.83;81.13;101389.41;5343630;33;34574;-86
2023/03/01 05:47:24;;;;;;;18.77;9.90;;;;;;;3.86;80.75;101387.41;5343669;33;33808;-86
2023/03/01 05:50:32;;;;;;;19.75;9.15;;;;;;;3.91;80.73;101396.88;5346846;33;34050;-87
2023/03/01 05:53:35;;;;;;;22.42;10.77;;;;;;;3.91;80.07;101405.72;5344513;33;35306;-87
2023/03/01 05:56:38;;;;;;;20.55;10.77;;;;;;;3.91;80.55;101405.72;5344137;33;33604;-87
2023/03/01 05:59:41;;;;;;;19.90;10.35;;;;;;;3.99;80.25;101406.03;5343741;33;34403;-87
2023/03/01 06:02:44;;;;;;;17.27;9.18;;;;;;;3.93;80.49;101405.63;5340833;33;33773;-87
2023/03/01 06:05:47;;;;;;;19.95;9.88;;;;;;;3.86;80.61;101406.06;5326184;33;33587;-87
2023/03/01 06:08:51;;;;;;;18.33;9.40;;;;;;;3.89;80.74;101401.44;5336661;33;34273;-86
2023/03/01 06:11:54;;;;;;;21.67;10.85;;;;;;;4.05;80.71;101402.91;5331097;33;35260;-87
2023/03/01 06:14:56;;;;;;;24.12;12.13;;;;;;;4.09;80.58;101409.75;5326345;33;34354;-87
2023/03/01 06:17:59;;;;;;;25.23;12.80;;;;;;;4.06;80.42;101403.75;5325871;33;34378;-87
2023/03/01 06:21:03;;;;;;;23.38;12.02;;;;;;;4.04;80.29;101411.03;5326166;33;34626;-87
2023/03/01 06:24:07;;;;;;;19.50;10.18;;;;;;;4.24;79.63;101412.22;5327110;33;34298;-87
2023/03/01 06:27:09;;;;;;;18.55;9.35;;;;;;;4.30;78.80;101404.66;5327254;33;34788;-87
2023/03/01 06:30:15;;;;;;;17.00;9.10;;;;;;;4.40;78.41;101412.84;5327509;33;33949;-87
2023/03/01 06:33:21;;;;;;;17.25;8.65;;;;;;;4.46;78.48;101407.03;5330476;33;33594;-87
2023/03/01 06:36:24;;;;;;;17.42;9.50;;;;;;;4.45;78.58;101407.19;5338234;33;33885;-87
2023/03/01 06:39:27;;;;;;;17.12;9.27;;;;;;;4.45;78.10;101407.19;5326035;33;35808;-87
2023/03/01 06:42:30;;;;;;;17.35;9.10;;;;;;;4.60;77.99;101408.69;5340084;33;33935;-87
2023/03/01 06:45:33;;;;;;;16.27;9.85;;;;;;;4.65;77.05;101409.22;5334038;33;35363;-87
2023/03/01 06:48:36;;;;;;;15.95;8.95;;;;;;;4.48;75.83;101421.13;5323208;33;33499;-87
2023/03/01 06:51:39;;;;;;;19.23;9.18;;;;;;;4.47;75.61;101430.06;5325836;33;33916;-87
2023/03/01 06:54:42;;;;;;;17.05;9.38;;;;;;;4.60;75.60;101423.84;5322897;33;34335;-87
2023/03/01 06:57:46;;;;;;;16.23;9.07;;;;;;;4.74;75.43;101421.03;5331290;33;34250;-87
2023/03/01 07:00:51;;;;;;;16.50;9.40;;;;;;;4.87;75.02;101432.47;5327171;33;35325;-87
2023/03/01 07:03:53;;;;;;;18.27;8.90;;;;;;;4.96;73.93;101425.59;5326361;33;34464;-87
2023/03/01 07:06:56;;;;;;;17.52;9.85;;;;;;;5.06;74.50;101429.28;5329229;33;33988;-87
2023/03/01 07:09:59;;;;;;;19.87;9.63;;;;;;;5.28;72.53;101427.63;5318973;33;225109;-87
2023/03/01 07:13:03;;;;;;;18.73;9.20;;;;;;;5.31;72.59;101419.38;5325192;33;33951;-90
2023/03/01 07:16:06;;;;;;;17.60;10.73;;;;;;;5.29;73.58;101415.97;5324775;33;34338;-90
2023/03/01 07:19:09;;;;;;;20.83;9.63;;;;;;;5.29;73.12;101414.13;5324974;33;34284;-90
2023/03/01 07:22:12;;;;;;;17.98;10.27;;;;;;;5.40;72.08;101422.19;5323052;33;34595;-88
2023/03/01 07:25:15;;;;;;;19.90;10.52;;;;;;;5.55;71.21;101420.13;5323515;33;34780;-87
2023/03/01 07:28:17;;;;;;;23.10;10.15;;;;;;;5.62;70.11;101416.03;5322942;33;33792;-87
2023/03/01 07:31:21;;;;;;;17.70;9.30;;;;;;;5.66;71.08;101412.13;5325972;33;33741;-87
2023/03/01 07:34:24;;;;;;;18.75;10.45;;;;;;;5.61;70.40;101402.78;5323919;33;35537;-87
2023/03/01 07:37:26;;;;;;;19.55;9.85;;;;;;;5.66;69.76;101408.62;5322945;33;34274;-87
2023/03/01 07:40:29;;;;;;;17.17;10.70;;;;;;;5.71;69.53;101413.63;5321849;33;33970;-87
2023/03/01 07:43:32;;;;;;;17.60;10.30;;;;;;;5.63;69.18;101411.53;5321966;33;34779;-86
2023/03/01 07:46:35;;;;;;;19.35;10.48;;;;;;;5.65;69.45;101410.44;5323027;33;33771;-87
2023/03/01 07:49:38;;;;;;;19.45;10.13;;;;;;;5.64;68.81;101410.53;5323717;33;33489;-87
2023/03/01 07:52:41;;;;;;;19.10;10.23;;;;;;;5.89;67.55;101409.47;5325843;33;33861;-87
2023/03/01 07:55:44;;;;;;;19.02;10.93;;;;;;;5.97;67.60;101399.06;5321903;33;33661;-87
2023/03/01 07:58:47;;;;;;;18.65;10.40;;;;;;;6.08;66.46;101401.72;5324774;33;34511;-87
2023/03/01 08:01:52;;;;;;;20.62;10.05;;;;;;;6.13;66.23;101388.81;5325153;33;33736;-87
2023/03/01 08:04:56;;;;;;;17.65;10.43;;;;;;;6.37;66.55;101395.81;5325447;33;33513;-87
2023/03/01 08:07:58;;;;;;;18.80;10.35;;;;;;;6.28;65.87;101396.56;5325853;33;34542;-87
2023/03/01 08:11:04;;;;;;;17.70;10.23;;;;;;;6.21;66.24;101388.19;5324856;33;33533;-87
2023/03/01 08:14:06;;;;;;;21.75;10.70;;;;;;;6.25;66.05;101391.47;5325395;33;33695;-86
2023/03/01 08:17:10;;;;;;;17.92;10.18;;;;;;;6.36;65.50;101394.97;5323353;33;36196;-86
2023/03/01 08:20:13;;;;;;;21.45;10.02;;;;;;;6.45;64.80;101397.88;5324986;33;33845;-86
2023/03/01 08:23:16;;;;;;;18.23;10.45;;;;;;;6.37;64.56;101393.13;5324770;33;33897;-86
2023/03/01 08:26:21;;;;;;;17.27;9.23;;;;;;;6.19;64.89;101386.63;5324210;33;33929;-86
2023/03/01 08:29:27;;;;;;;15.80;10.10;;;;;;;6.42;63.75;101388.28;5326654;33;33956;-86
2023/03/01 08:32:35;;;;;;;18.15;10.63;;;;;;;6.65;63.88;101382.84;5325760;33;34107;-87
2023/03/01 08:35:38;;;;;;;22.90;10.65;;;;;;;6.84;64.08;101374.12;5329116;33;33514;-88
2023/03/01 08:38:41;;;;;;;14.02;9.27;;;;;;;7.10;62.74;101369.22;5340812;33;34012;-88
2023/03/01 08:41:44;;;;;;;14.90;8.95;;;;;;;7.20;61.08;101372.84;5332729;33;34094;-89
2023/03/01 08:44:49;;;;;;;13.02;8.05;;;;;;;7.28;61.67;101373.00;5325278;33;33983;-88
2023/03/01 08:47:53;;;;;;;16.58;8.73;;;;;;;7.53;60.29;101371.75;5332746;33;36922;-88
2023/03/01 08:50:56;;;;;;;15.35;8.88;;;;;;;7.74;60.32;101366.31;5327742;33;33800;-88
2023/03/01 08:53:59;;;;;;;16.15;9.05;;;;;;;7.92;59.79;101361.16;5331161;33;35023;-88
2023/03/01 08:57:02;;;;;;;15.52;8.90;;;;;;;8.01;59.24;101362.19;5344749;33;34242;-88
2023/03/01 09:00:08;;;;;;;15.50;9.20;;;;;;;8.08;58.48;101360.66;5330599;33;35440;-86
2023/03/01 09:03:12;;;;;;;17.25;9.50;;;;;;;8.25;58.27;101351.06;5325851;33;33599;-85
2023/03/01 09:06:15;;;;;;;16.10;9.18;;;;;;;8.51;56.74;101349.59;5322248;33;33959;-85
2023/03/01 09:09:18;;;;;;;16.37;9.40;;;;;;;7.98;57.71;101349.06;5326833;33;34369;-86
2023/03/01 09:12:22;;;;;;;16.27;9.63;;;;;;;8.24;58.09;101363.66;5326481;33;34764;-86
2023/03/01 09:15:24;;;;;;;15.40;9.25;;;;;;;8.20;57.87;101359.56;5332786;33;33798;-86
2023/03/01 09:18:28;;;;;;;17.15;9.73;;;;;;;8.38;58.25;101341.81;5339630;33;34246;-86
2023/03/01 09:21:31;;;;;;;14.73;9.15;;;;;;;8.92;56.17;101331.50;5336124;33;34012;-86
2023/03/01 09:24:43;;;;;;;17.90;10.30;;;;;;;8.55;56.50;101339.44;5332406;33;34356;-88
2023/03/01 09:27:45;;;;;;;15.90;9.30;;;;;;;8.51;57.14;101332.63;5336890;33;33823;-87
2023/03/01 09:30:50;;;;;;;16.00;8.77;;;;;;;8.60;58.18;101323.75;5330473;33;33771;-87
2023/03/01 09:33:54;;;;;;;18.05;9.68;;;;;;;8.82;56.14;101320.75;5327388;33;34322;-87
2023/03/01 09:36:58;;;;;;;16.58;9.70;;;;;;;9.01;54.70;101317.22;5322833;33;35695;-87
2023/03/01 09:40:03;;;;;;;14.90;9.43;;;;;;;9.12;56.14;101321.53;5325243;33;33977;-86
2023/03/01 09:43:23;;;;;;;15.90;9.52;;;;;;;9.31;56.29;101310.75;5326023;33;34330;-86
2023/03/01 09:46:27;;;;;;;18.17;10.10;;;;;;;9.04;54.89;101302.66;5329339;33;33934;-86
2023/03/01 09:49:48;;;;;;;14.93;9.52;;;;;;;8.96;55.34;101299.84;5327058;33;34238;-86
2023/03/01 09:53:05;;;;;;;18.30;9.60;;;;;;;9.42;54.79;101300.78;5324489;33;34317;-86
2023/03/01 09:56:30;;;;;;;21.50;9.77;;;;;;;9.18;54.21;101296.78;5308187;33;34037;-86
2023/03/01 10:00:05;;;;;;;14.07;9.27;;;;;;;9.43;56.42;101297.13;5308033;33;34210;-86
2023/03/01 10:03:12;;;;;;;17.23;9.73;;;;;;;9.71;55.47;101288.09;5295955;33;33472;-86
2023/03/01 10:06:20;;;;;;;15.80;8.82;;;;;;;9.79;53.40;101289.19;5309207;33;34501;-86
2023/03/01 10:09:42;;;;;;;16.55;9.30;;;;;;;10.00;52.55;101284.34;5313470;33;33732;-86
2023/03/01 10:12:46;;;;;;;15.80;9.32;;;;;;;9.85;53.16;101288.56;5324652;33;35317;-87
2023/03/01 10:15:55;;;;;;;16.50;9.70;;;;;;;9.89;52.27;101285.44;5321522;33;35265;-87
2023/03/01 10:19:01;;;;;;;17.95;9.90;;;;;;;10.11;52.63;101276.06;5316451;33;33759;-86
2023/03/01 10:22:15;;;;;;;19.17;9.55;;;;;;;10.14;54.76;101270.38;5343530;33;34221;-87
2023/03/01 10:25:51;;;;;;;16.62;10.13;;;;;;;10.44;52.57;101265.62;5343803;33;33902;-86
2023/03/01 10:29:07;;;;;;;15.57;9.07;;;;;;;10.23;51.79;101252.47;5315431;33;33506;-86
2023/03/01 10:32:11;;;;;;;18.52;9.90;;;;;;;9.85;52.55;101250.91;5307858;33;34688;-86
2023/03/01 10:35:28;;;;;;;18.90;10.02;;;;;;;9.86;53.17;101244.56;5320735;33;33685;-86
2023/03/01 10:38:48;;;;;;;16.48;8.85;;;;;;;9.98;53.04;101240.66;5323784;33;35250;-86
2023/03/01 10:41:57;;;;;;;13.35;7.97;;;;;;;10.38;53.70;101234.84;5323510;33;33466;-86
2023/03/01 10:45:29;;;;;;;18.77;9.13;;;;;;;10.41;51.82;101226.44;5325260;33;34235;-87
2023/03/01 10:48:32;;;;;;;13.70;8.20;;;;;;;10.13;52.47;101219.44;5324721;33;33798;-87
2023/03/01 10:51:40;;;;;;;12.65;7.95;;;;;;;10.48;55.10;101210.50;5312751;33;34753;-87
2023/03/01 10:54:52;;;;;;;16.10;8.63;;;;;;;10.44;51.98;101211.78;5325191;33;34518;-86
2023/03/01 10:58:18;;;;;;;18.55;10.13;;;;;;;10.54;52.09;101209.87;5324130;33;34420;-87
2023/03/01 11:01:32;;;;;;;18.23;10.07;;;;;;;10.62;50.50;101201.84;5325756;33;34110;-87
2023/03/01 11:04:36;;;;;;;14.30;8.38;;;;;;;10.89;52.90;101203.53;5326227;33;34360;-87
2023/03/01 11:07:53;;;;;;;15.75;8.77;;;;;;;10.87;50.24;101194.75;5318987;33;34659;-87
2023/03/01 11:11:18;;;;;;;14.63;9.20;;;;;;;10.76;50.34;101194.19;5336116;33;33680;-87
2023/03/01 11:14:34;;;;;;;15.88;9.07;;;;;;;10.62;50.44;101195.63;5330376;33;35452;-87
2023/03/01 11:17:38;;;;;;;16.42;9.70;;;;;;;10.73;50.11;101195.34;5324613;33;33534;-87
2023/03/01 11:21:00;;;;;;;17.58;9.68;;;;;;;10.92;49.70;101179.97;5325065;33;33927;-87
2023/03/01 11:24:06;;;;;;;16.02;9.32;;;;;;;11.38;49.03;101175.09;5325111;33;33849;-87
2023/03/01 11:27:27;;;;;;;17.30;9.10;;;;;;;11.65;48.19;101164.06;5325498;33;34220;-92
2023/03/01 11:30:59;;;;;;;14.05;8.65;;;;;;;12.16;46.77;101158.56;5324980;33;34391;-88
2023/03/01 11:34:19;;;;;;;14.15;8.73;;;;;;;12.73;45.58;101150.41;5324921;33;33378;-87
2023/03/01 11:37:44;;;;;;;17.45;9.50;;;;;;;13.61;44.40;101155.63;5324223;33;34519;-87
2023/03/01 11:41:05;;;;;;;15.70;9.40;;;;;;;14.26;43.62;101159.69;5328775;33;34036;-87
2023/03/01 11:44:20;;;;;;;11.50;8.18;;;;;;;14.85;40.55;101150.00;5325987;33;34669;-87
2023/03/01 11:47:44;;;;;;;13.90;7.50;;;;;;;15.09;40.93;101157.84;5326685;33;35140;-87
2023/03/01 11:50:49;;;;;;;12.80;7.57;;;;;;;15.38;39.16;101146.09;5331645;33;34545;-87
2023/03/01 11:54:14;;;;;;;10.45;6.70;;;;;;;16.24;38.46;101148.06;5342578;33;35221;-87
2023/03/01 11:57:33;;;;;;;10.07;6.82;;;;;;;16.60;38.24;101138.91;5330143;33;33993;-87
2023/03/01 12:01:04;;;;;;;11.73;7.87;;;;;;;17.15;36.92;101145.31;5330054;33;33936;-88
2023/03/01 12:04:45;;;;;;;11.70;8.00;;;;;;;17.07;36.05;101140.88;5322999;33;34072;-87
2023/03/01 12:08:14;;;;;;;14.25;8.23;;;;;;;16.83;35.91;101127.78;5320397;33;34250;-87
2023/03/01 12:11:32;;;;;;;11.27;7.70;;;;;;;16.47;36.78;101129.63;5325071;33;33475;-88
2023/03/01 12:15:16;;;;;;;11.57;7.35;;;;;;;15.17;39.14;101129.78;5323019;33;34658;-88
2023/03/01 12:18:57;;;;;;;11.95;7.30;;;;;;;15.09;40.09;101128.03;5274081;33;34444;-87
2023/03/01 12:22:31;;;;;;;11.30;7.18;;;;;;;14.98;40.03;101120.38;5324572;33;33934;-88
2023/03/01 12:25:49;;;;;;;10.10;6.72;;;;;;;15.64;38.78;101109.44;5321835;33;33886;-88
2023/03/01 12:29:19;;;;;;;10.98;6.70;;;;;;;15.48;38.48;101101.53;5324016;33;34173;-87
2023/03/01 12:32:33;;;;;;;10.32;6.28;;;;;;;15.06;39.36;101109.38;5328326;33;34500;-88
2023/03/01 12:36:05;;;;;;;12.73;7.57;;;;;;;14.92;40.02;101102.13;5330408;33;33802;-87
2023/03/01 12:39:39;;;;;;;9.63;6.60;;;;;;;16.03;39.30;101094.59;5331794;33;34171;-88
2023/03/01 12:42:58;;;;;;;8.68;6.43;;;;;;;16.34;37.97;101091.47;5325365;33;33833;-87
2023/03/01 12:46:13;;;;;;;10.80;6.47;;;;;;;16.45;37.11;101077.34;5331806;33;33757;-87
2023/03/01 12:49:23;;;;;;;9.85;6.22;;;;;;;17.06;36.14;101079.34;5333192;33;35119;-87
2023/03/01 12:52:51;;;;;;;8.07;6.05;;;;;;;17.38;35.91;101072.34;5329964;33;35008;-87
2023/03/01 12:56:00;;;;;;;9.50;6.37;;;;;;;17.20;35.48;101066.66;5337984;33;34400;-87
2023/03/01 12:59:22;;;;;;;7.68;6.00;;;;;;;17.38;35.59;101066.91;5321761;33;33558;-87
2023/03/01 13:02:46;;;;;;;7.93;5.87;;;;;;;17.92;34.11;101076.00;5331633;33;33845;-87
2023/03/01 13:05:53;;;;;;;11.20;5.90;;;;;;;19.06;33.02;101069.28;5317934;33;34322;-91
2023/03/01 13:09:23;;;;;;;8.82;5.50;;;;;;;19.28;33.20;101058.91;5331404;33;33790;-89
2023/03/01 13:12:57;;;;;;;6.03;4.70;;;;;;;19.49;32.78;101063.19;5328678;33;34420;-87
2023/03/01 13:16:22;;;;;;;7.72;4.97;;;;;;;17.59;34.79;101057.72;5331190;33;34137;-88
2023/03/01 13:19:31;;;;;;;8.55;4.10;;;;;;;17.22;36.92;101062.66;5329436;33;34226;-87
2023/03/01 13:22:33;;;;;;;16.33;5.10;;;;;;;16.66;37.48;101060.09;5348519;33;35474;-87
2023/03/01 13:26:14;;;;;;;6.47;4.20;;;;;;;16.02;39.05;101061.13;5345316;33;34909;-87
2023/03/01 13:29:26;;;;;;;5.47;4.00;;;;;;;15.68;39.21;101056.47;5329497;33;34377;-87
2023/03/01 13:32:38;;;;;;;6.90;4.80;;;;;;;15.65;40.13;101043.25;5344005;33;34085;-88
2023/03/01 13:35:49;;;;;;;6.90;4.87;;;;;;;15.00;40.02;101042.34;5330138;33;35159;-92
2023/03/01 13:38:58;;;;;;;6.90;4.15;;;;;;;14.79;41.78;101037.72;5339648;33;35299;-88
2023/03/01 13:42:01;;;;;;;7.22;4.57;;;;;;;14.41;42.17;101036.97;5339657;33;35265;-88
2023/03/01 13:45:42;;;;;;;7.80;5.03;;;;;;;13.94;43.28;101038.97;5337648;33;34281;-87
2023/03/01 13:48:57;;;;;;;6.78;4.60;;;;;;;13.95;43.49;101046.09;5337376;33;34263;-87
2023/03/01 13:52:01;;;;;;;5.97;4.22;;;;;;;13.06;44.80;101034.88;5326858;33;34564;-87
2023/03/01 13:55:14;;;;;;;9.52;4.70;;;;;;;12.56;46.19;101029.91;5328573;33;33409;-87
2023/03/01 13:58:26;;;;;;;7.05;4.18;;;;;;;12.52;47.18;101020.44;5328421;33;33601;-87
2023/03/01 14:01:34;;;;;;;6.32;4.10;;;;;;;12.44;47.25;101013.25;5311990;33;34038;-87
2023/03/01 14:04:38;;;;;;;7.85;4.25;;;;;;;12.27;47.29;101011.59;5327900;33;33610;-87
2023/03/01 14:07:42;;;;;;;7.57;4.00;;;;;;;12.07;48.04;101008.44;5327727;33;34121;-87
2023/03/01 14:11:09;;;;;;;8.50;4.15;;;;;;;12.14;48.94;101002.19;5342201;33;33957;-87
2023/03/01 14:14:31;;;;;;;6.78;4.40;;;;;;;11.90;48.62;101005.75;5344386;33;35330;-86
2023/03/01 14:17:50;;;;;;;6.78;4.25;;;;;;;12.12;49.11;101001.53;5338338;33;35221;-89
2023/03/01 14:20:53;;;;;;;5.35;4.03;;;;;;;11.90;50.64;100994.13;5340336;33;34125;-87
2023/03/01 14:23:58;;;;;;;7.47;3.92;;;;;;;11.41;50.45;100986.03;5338325;33;34053;-88
2023/03/01 14:27:01;;;;;;;9.40;4.10;;;;;;;11.19;51.64;100984.88;5334471;33;34255;-87
2023/03/01 14:30:21;;;;;;;5.85;4.07;;;;;;;11.19;51.56;100979.47;5336128;33;34289;-87
2023/03/01 14:33:28;;;;;;;7.32;3.80;;;;;;;11.32;50.91;100979.84;5340816;33;35424;-87
2023/03/01 14:36:33;;;;;;;7.47;4.30;;;;;;;11.31;51.69;100984.38;5334013;33;34042;-87
2023/03/01 14:39:37;;;;;;;6.60;3.80;;;;;;;11.14;51.85;100977.28;5326046;33;33509;-87
2023/03/01 14:42:40;;;;;;;8.38;3.95;;;;;;;11.19;52.09;100976.78;5324284;33;33402;-88
2023/03/01 14:45:48;;;;;;;6.65;3.70;;;;;;;11.23;53.32;100968.22;5322572;33;34918;-87
2023/03/01 14:48:53;;;;;;;6.62;4.15;;;;;;;10.97;52.46;100956.69;5324552;33;34378;-87
2023/03/01 14:52:01;;;;;;;5.43;3.42;;;;;;;10.99;52.73;100963.63;5325679;33;33932;-87
2023/03/01 14:55:18;;;;;;;6.87;4.12;;;;;;;10.97;53.24;100954.00;5325412;33;33660;-87
2023/03/01 14:58:24;;;;;;;6.20;4.00;;;;;;;10.91;53.29;100952.84;5315109;33;33955;-86
2023/03/01 15:01:28;;;;;;;4.70;3.78;;;;;;;10.89;53.48;100954.84;5325880;33;33632;-87
2023/03/01 15:04:31;;;;;;;7.70;3.92;;;;;;;10.89;53.42;100946.78;5326361;33;33865;-87
2023/03/01 15:07:40;;;;;;;7.93;3.95;;;;;;;10.85;54.30;100948.09;5325348;33;34556;-87
2023/03/01 15:11:15;;;;;;;7.90;3.53;;;;;;;10.82;53.90;100951.13;5321391;33;33931;-87
2023/03/01 15:14:48;;;;;;;5.30;3.42;;;;;;;10.76;53.91;100944.53;5311285;33;34868;-89
2023/03/01 15:18:22;;;;;;;6.65;3.60;;;;;;;10.71;54.48;100954.16;5322986;33;33995;-87
2023/03/01 15:21:38;;;;;;;6.07;3.53;;;;;;;10.60;54.23;100956.13;5337428;33;34092;-85
2023/03/01 15:24:40;;;;;;;8.13;3.90;;;;;;;10.51;54.46;100956.28;5353523;33;34993;-86
2023/03/01 15:27:48;;;;;;;10.25;4.00;;;;;;;10.49;54.51;100963.66;5326744;33;33118;-85
2023/03/01 15:30:58;;;;;;;5.70;4.28;;;;;;;10.36;55.21;100947.97;5328948;33;35204;-87
2023/03/01 15:34:23;;;;;;;9.70;3.85;;;;;;;10.33;55.35;100951.00;5326682;33;34000;-86
2023/03/01 15:37:48;;;;;;;5.90;4.07;;;;;;;10.21;55.77;100945.87;5325757;33;33653;-86
2023/03/01 15:40:52;;;;;;;7.53;3.55;;;;;;;10.20;55.84;100946.00;5324210;33;34448;-87
2023/03/01 15:43:55;;;;;;;6.53;3.45;;;;;;;10.18;56.79;100948.87;5327468;33;34496;-87
2023/03/01 15:46:59;;;;;;;11.32;3.72;;;;;;;10.12;55.93;100952.22;5332815;33;34399;-87
2023/03/01 15:50:03;;;;;;;7.78;4.00;;;;;;;10.02;57.83;100956.03;5328367;33;34242;-87
2023/03/01 15:53:14;;;;;;;5.07;3.50;;;;;;;9.97;56.52;100957.34;5324357;33;34391;-91
2023/03/01 15:56:20;;;;;;;6.78;3.35;;;;;;;9.91;56.95;100954.44;5330845;33;34117;-91
2023/03/01 15:59:23;;;;;;;5.35;4.00;;;;;;;9.79;56.78;100956.56;5328830;33;34119;-86
2023/03/01 16:02:26;;;;;;;8.68;3.78;;;;;;;9.72;57.14;100952.81;5322849;33;34221;-87
2023/03/01 16:05:32;;;;;;;8.70;3.72;;;;;;;9.69;57.52;100956.66;5325818;33;33403;-86
2023/03/01 16:08:34;;;;;;;7.45;4.28;;;;;;;9.57;57.54;100955.25;5327381;33;35461;-86
2023/03/01 16:11:39;;;;;;;7.15;3.97;;;;;;;9.51;58.05;100955.87;5326938;33;34596;-86
2023/03/01 16:14:42;;;;;;;7.75;3.80;;;;;;;9.44;58.80;100957.50;5326308;33;34362;-86
2023/03/01 16:17:45;;;;;;;7.10;3.90;;;;;;;9.35;58.88;100961.12;5326220;33;34015;-86
2023/03/01 16:20:53;;;;;;;8.70;4.20;;;;;;;9.25;58.94;100958.53;5327666;33;33898;-86
2023/03/01 16:23:56;;;;;;;8.75;4.10;;;;;;;9.09;59.55;100964.59;5325357;33;34751;-86
2023/03/01 16:26:59;;;;;;;9.80;4.03;;;;;;;9.07;60.04;100963.91;5316164;33;33617;-87
2023/03/01 16:30:03;;;;;;;9.13;4.30;;;;;;;8.94;60.11;100968.81;5334401;33;34219;-86
2023/03/01 16:33:07;;;;;;;8.65;4.35;;;;;;;8.79;60.17;100980.06;5328975;33;33996;-87
2023/03/01 16:36:30;;;;;;;7.87;4.28;;;;;;;8.68;60.57;100971.38;5329349;33;34701;-87
2023/03/01 16:39:33;;;;;;;8.50;4.18;;;;;;;8.55;61.23;100977.97;5330072;33;34738;-86
2023/03/01 16:42:36;;;;;;;9.15;4.57;;;;;;;8.45;61.72;100979.84;5329780;33;34484;-86
2023/03/01 16:45:44;;;;;;;6.32;4.40;;;;;;;8.39;61.78;100981.31;5329415;33;34418;-87
2023/03/01 16:48:48;;;;;;;10.50;4.62;;;;;;;8.34;62.00;100983.53;5328910;33;34744;-86
2023/03/01 16:51:53;;;;;;;7.53;4.50;;;;;;;8.28;62.10;100989.50;5328876;33;33877;-86
2023/03/01 16:54:57;;;;;;;7.57;4.25;;;;;;;8.17;62.59;100993.22;5328285;33;34157;-87
2023/03/01 16:57:59;;;;;;;7.80;4.37;;;;;;;8.09;63.37;100995.78;5328332;33;34341;-86
2023/03/01 17:01:10;;;;;;;11.00;4.65;;;;;;;8.01;63.57;100992.97;5328251;33;33253;-87
